createdAt,value
2016-08-23T00:00:25.284Z,0
2016-08-23T00:01:38.277Z,0
2016-08-23T00:02:51.458Z,0
2016-08-23T00:04:04.437Z,0
2016-08-23T00:05:17.420Z,0
2016-08-23T00:06:30.440Z,0
2016-08-23T00:07:43.436Z,0
2016-08-23T00:08:56.417Z,0
2016-08-23T00:10:09.600Z,0
2016-08-23T00:11:22.586Z,0
2016-08-23T00:12:35.573Z,0
2016-08-23T00:13:48.694Z,0
2016-08-23T00:15:01.674Z,0
2016-08-23T00:16:14.663Z,0
2016-08-23T00:17:27.637Z,0
2016-08-23T00:18:40.622Z,0
2016-08-23T00:19:53.799Z,0
2016-08-23T00:21:06.793Z,0
2016-08-23T00:22:19.776Z,0
2016-08-23T00:23:32.754Z,0
2016-08-23T00:24:45.734Z,0
2016-08-23T00:25:58.720Z,0
2016-08-23T00:27:11.722Z,0
2016-08-23T00:28:24.704Z,0
2016-08-23T00:29:37.684Z,0
2016-08-23T00:30:50.653Z,0
2016-08-23T00:32:03.835Z,0
2016-08-23T00:33:16.822Z,0
2016-08-23T00:34:29.801Z,0
2016-08-23T00:35:42.784Z,0
2016-08-23T00:36:55.961Z,0
2016-08-23T00:38:08.940Z,0
2016-08-23T00:39:22.526Z,0
2016-08-23T00:40:35.512Z,0
2016-08-23T00:41:48.490Z,0
2016-08-23T00:43:01.466Z,0
2016-08-23T00:44:14.445Z,0
2016-08-23T00:45:27.430Z,0
2016-08-23T00:46:40.403Z,0
2016-08-23T00:47:53.387Z,0
2016-08-23T00:49:06.366Z,0
2016-08-23T00:50:19.346Z,0
2016-08-23T00:51:32.528Z,0
2016-08-23T00:52:45.516Z,0
2016-08-23T00:53:58.492Z,0
2016-08-23T00:55:11.470Z,0
2016-08-23T00:56:24.449Z,0
2016-08-23T00:57:37.427Z,0
2016-08-23T00:58:50.407Z,0
2016-08-23T01:00:03.388Z,0
2016-08-23T01:01:16.362Z,0
2016-08-23T01:02:29.353Z,0
2016-08-23T01:03:42.335Z,0
2016-08-23T01:04:55.312Z,0
2016-08-23T01:06:08.504Z,0
2016-08-23T01:07:21.486Z,0
2016-08-23T01:08:34.468Z,0
2016-08-23T01:09:47.441Z,0
2016-08-23T01:11:00.422Z,0
2016-08-23T01:12:13.397Z,0
2016-08-23T01:13:26.589Z,0
2016-08-23T01:14:39.615Z,0
2016-08-23T01:15:52.606Z,0
2016-08-23T01:17:05.588Z,0
2016-08-23T01:18:18.567Z,0
2016-08-23T01:19:31.556Z,0
2016-08-23T01:20:44.538Z,0
2016-08-23T01:21:57.516Z,0
2016-08-23T01:23:10.493Z,0
2016-08-23T01:24:23.513Z,0
2016-08-23T01:25:36.493Z,0
2016-08-23T01:26:49.676Z,0
2016-08-23T01:28:02.658Z,0
2016-08-23T01:29:15.634Z,0
2016-08-23T01:30:28.620Z,0
2016-08-23T01:31:41.603Z,0
2016-08-23T01:32:54.790Z,0
2016-08-23T01:34:07.774Z,0
2016-08-23T01:35:20.756Z,0
2016-08-23T01:36:33.749Z,0
2016-08-23T01:37:46.745Z,0
2016-08-23T01:38:59.728Z,0
2016-08-23T01:40:12.718Z,0
2016-08-23T01:41:25.700Z,0
2016-08-23T01:42:38.876Z,0
2016-08-23T01:43:51.870Z,0
2016-08-23T01:45:04.866Z,0
2016-08-23T01:46:17.855Z,0
2016-08-23T01:47:30.837Z,0
2016-08-23T01:48:43.823Z,0
2016-08-23T01:49:56.807Z,0
2016-08-23T01:51:09.781Z,0
2016-08-23T01:52:22.765Z,0
2016-08-23T01:53:35.743Z,0
2016-08-23T01:54:48.724Z,0
2016-08-23T01:56:01.709Z,0
2016-08-23T01:57:14.692Z,0
2016-08-23T01:58:27.676Z,0
2016-08-23T01:59:40.859Z,0
2016-08-23T02:00:53.835Z,0
2016-08-23T02:02:06.818Z,0
2016-08-23T02:03:19.803Z,0
2016-08-23T02:04:32.776Z,0
2016-08-23T02:05:45.759Z,0
2016-08-23T02:06:58.739Z,0
2016-08-23T02:08:11.919Z,0
2016-08-23T02:09:24.898Z,0
2016-08-23T02:10:37.872Z,0
2016-08-23T02:11:50.855Z,0
2016-08-23T02:13:03.834Z,0
2016-08-23T02:14:17.019Z,0
2016-08-23T02:15:30.063Z,0
2016-08-23T02:16:43.040Z,0
2016-08-23T02:17:56.021Z,0
2016-08-23T02:19:08.995Z,0
2016-08-23T02:20:22.012Z,0
2016-08-23T02:21:34.990Z,0
2016-08-23T02:22:47.975Z,0
2016-08-23T02:24:00.956Z,0
2016-08-23T02:25:13.931Z,0
2016-08-23T02:26:26.910Z,0
2016-08-23T02:27:40.089Z,0
2016-08-23T02:28:53.278Z,0
2016-08-23T02:30:06.463Z,0
2016-08-23T02:31:19.649Z,0
2016-08-23T02:32:32.645Z,0
2016-08-23T02:33:45.616Z,0
2016-08-23T02:34:58.596Z,0
2016-08-23T02:36:11.583Z,0
2016-08-23T02:37:24.787Z,0
2016-08-23T02:38:37.770Z,0
2016-08-23T02:39:50.763Z,0
2016-08-23T02:41:03.747Z,0
2016-08-23T02:42:16.730Z,0
2016-08-23T02:43:29.915Z,0
2016-08-23T02:44:42.897Z,0
2016-08-23T02:45:55.870Z,0
2016-08-23T02:47:08.849Z,0
2016-08-23T02:48:21.828Z,0
2016-08-23T02:49:34.816Z,0
2016-08-23T02:50:47.804Z,0
2016-08-23T02:52:00.780Z,0
2016-08-23T02:53:13.762Z,0
2016-08-23T02:54:26.743Z,0
2016-08-23T02:55:39.926Z,0
2016-08-23T02:56:52.906Z,0
2016-08-23T02:58:05.875Z,0
2016-08-23T02:59:18.853Z,0
2016-08-23T03:00:31.838Z,0
2016-08-23T03:01:45.012Z,0
2016-08-23T03:02:57.996Z,0
2016-08-23T03:04:11.372Z,0
2016-08-23T03:05:24.354Z,0
2016-08-23T03:06:37.343Z,0
2016-08-23T03:07:50.333Z,0
2016-08-23T03:09:03.522Z,0
2016-08-23T03:10:16.506Z,0
2016-08-23T03:11:29.488Z,0
2016-08-23T03:12:42.489Z,0
2016-08-23T03:13:55.470Z,0
2016-08-23T03:15:08.663Z,0
2016-08-23T03:16:21.904Z,0
2016-08-23T03:17:34.876Z,0
2016-08-23T03:18:47.856Z,0
2016-08-23T03:20:00.841Z,0
2016-08-23T03:21:13.820Z,0
2016-08-23T03:22:26.836Z,0
2016-08-23T03:23:39.813Z,0
2016-08-23T03:24:52.992Z,0
2016-08-23T03:26:06.172Z,0
2016-08-23T03:27:19.350Z,0
2016-08-23T03:28:32.331Z,0
2016-08-23T03:29:45.306Z,0
2016-08-23T03:30:58.490Z,0
2016-08-23T03:32:11.465Z,0
2016-08-23T03:33:24.449Z,0
2016-08-23T03:34:37.428Z,0
2016-08-23T03:35:50.608Z,0
2016-08-23T03:37:03.587Z,0
2016-08-23T03:38:16.569Z,0
2016-08-23T03:39:29.536Z,0
2016-08-23T03:40:42.522Z,0
2016-08-23T03:41:55.518Z,0
2016-08-23T03:43:08.508Z,0
2016-08-23T03:44:21.885Z,0
2016-08-23T03:45:34.863Z,0
2016-08-23T03:46:47.842Z,0
2016-08-23T03:48:00.820Z,0
2016-08-23T03:49:14.006Z,0
2016-08-23T03:50:26.985Z,0
2016-08-23T03:51:40.164Z,0
2016-08-23T03:52:53.347Z,4
2016-08-23T03:54:06.334Z,0
2016-08-23T03:55:19.307Z,4
2016-08-23T03:56:32.283Z,4
2016-08-23T03:57:45.260Z,8
2016-08-23T03:58:58.233Z,8
2016-08-23T04:00:11.205Z,8
2016-08-23T04:01:24.389Z,12
2016-08-23T04:02:37.401Z,12
2016-08-23T04:03:50.381Z,16
2016-08-23T04:05:03.382Z,20
2016-08-23T04:06:16.347Z,24
2016-08-23T04:07:29.328Z,28
2016-08-23T04:08:42.314Z,36
2016-08-23T04:09:55.291Z,40
2016-08-23T04:11:08.470Z,48
2016-08-23T04:12:21.451Z,56
2016-08-23T04:13:34.426Z,64
2016-08-23T04:14:47.407Z,76
2016-08-23T04:16:00.387Z,92
2016-08-23T04:17:13.418Z,100
2016-08-23T04:18:26.400Z,120
2016-08-23T04:19:39.384Z,132
2016-08-23T04:20:52.367Z,156
2016-08-23T04:22:05.353Z,172
2016-08-23T04:23:18.539Z,196
2016-08-23T04:24:31.527Z,220
2016-08-23T04:25:44.506Z,240
2016-08-23T04:26:57.485Z,268
2016-08-23T04:28:10.463Z,296
2016-08-23T04:29:23.444Z,324
2016-08-23T04:30:36.841Z,352
2016-08-23T04:31:49.822Z,384
2016-08-23T04:33:02.807Z,412
2016-08-23T04:34:15.783Z,444
2016-08-23T04:35:28.765Z,476
2016-08-23T04:36:41.749Z,512
2016-08-23T04:37:54.731Z,544
2016-08-23T04:39:07.713Z,580
2016-08-23T04:40:20.712Z,612
2016-08-23T04:41:33.683Z,644
2016-08-23T04:42:46.658Z,680
2016-08-23T04:43:59.635Z,720
2016-08-23T04:45:12.616Z,756
2016-08-23T04:46:25.622Z,796
2016-08-23T04:47:38.601Z,844
2016-08-23T04:48:51.578Z,888
2016-08-23T04:50:04.573Z,944
2016-08-23T04:51:17.556Z,1004
2016-08-23T04:52:30.538Z,1056
2016-08-23T04:53:43.524Z,1112
2016-08-23T04:54:56.705Z,1176
2016-08-23T04:56:09.692Z,1236
2016-08-23T04:57:22.670Z,1312
2016-08-23T04:58:35.646Z,1416
2016-08-23T04:59:48.830Z,1520
2016-08-23T05:01:01.832Z,1568
2016-08-23T05:02:14.822Z,1648
2016-08-23T05:03:27.807Z,1752
2016-08-23T05:04:40.787Z,1828
2016-08-23T05:05:53.783Z,2420
2016-08-23T05:07:06.773Z,2156
2016-08-23T05:08:19.957Z,1956
2016-08-23T05:09:32.926Z,2224
2016-08-23T05:10:46.108Z,2532
2016-08-23T05:11:59.095Z,2736
2016-08-23T05:13:12.280Z,2924
2016-08-23T05:14:25.462Z,3064
2016-08-23T05:15:38.459Z,3200
2016-08-23T05:16:51.449Z,3320
2016-08-23T05:18:04.475Z,3436
2016-08-23T05:19:17.658Z,3576
2016-08-23T05:20:30.667Z,3692
2016-08-23T05:21:43.651Z,3796
2016-08-23T05:22:56.628Z,3852
2016-08-23T05:24:09.613Z,3848
2016-08-23T05:25:22.591Z,4356
2016-08-23T05:26:35.576Z,3996
2016-08-23T05:27:48.559Z,3444
2016-08-23T05:29:01.547Z,3224
2016-08-23T05:30:14.524Z,3132
2016-08-23T05:31:27.505Z,3192
2016-08-23T05:32:40.480Z,3156
2016-08-23T05:33:53.664Z,3320
2016-08-23T05:35:06.646Z,3564
2016-08-23T05:36:19.621Z,3728
2016-08-23T05:37:32.646Z,3812
2016-08-23T05:38:45.623Z,3792
2016-08-23T05:39:58.800Z,3796
2016-08-23T05:41:11.784Z,3840
2016-08-23T05:42:24.826Z,3976
2016-08-23T05:43:38.015Z,4152
2016-08-23T05:44:51.195Z,4304
2016-08-23T05:46:04.573Z,4368
2016-08-23T05:47:17.752Z,4388
2016-08-23T05:48:30.738Z,4436
2016-08-23T05:49:43.715Z,4472
2016-08-23T05:50:56.696Z,4404
2016-08-23T05:52:09.877Z,4272
2016-08-23T05:53:22.869Z,4156
2016-08-23T05:54:35.847Z,4088
2016-08-23T05:55:48.834Z,4084
2016-08-23T05:57:01.810Z,4084
2016-08-23T05:58:14.808Z,4068
2016-08-23T05:59:27.789Z,4100
2016-08-23T06:00:40.771Z,4116
2016-08-23T06:01:53.750Z,4128
2016-08-23T06:03:06.734Z,4100
2016-08-23T06:04:19.914Z,4120
2016-08-23T06:05:32.907Z,4144
2016-08-23T06:06:45.886Z,4188
2016-08-23T06:07:59.081Z,4296
2016-08-23T06:09:12.076Z,4344
2016-08-23T06:10:25.300Z,4424
2016-08-23T06:11:38.281Z,4592
2016-08-23T06:12:51.257Z,5164
2016-08-23T06:14:04.242Z,5104
2016-08-23T06:15:17.219Z,5072
2016-08-23T06:16:30.200Z,4908
2016-08-23T06:17:43.184Z,4964
2016-08-23T06:18:56.217Z,5040
2016-08-23T06:20:09.206Z,5408
2016-08-23T06:21:22.195Z,5568
2016-08-23T06:22:35.393Z,5644
2016-08-23T06:23:48.378Z,5884
2016-08-23T06:25:01.376Z,6528
2016-08-23T06:26:14.358Z,6948
2016-08-23T06:27:27.366Z,7244
2016-08-23T06:28:40.365Z,7788
2016-08-23T06:29:53.347Z,7736
2016-08-23T06:31:06.334Z,7664
2016-08-23T06:32:19.320Z,9256
2016-08-23T06:33:32.301Z,7932
2016-08-23T06:34:45.290Z,10440
2016-08-23T06:35:58.287Z,12428
2016-08-23T06:37:11.294Z,15316
2016-08-23T06:38:24.280Z,24224
2016-08-23T06:39:37.258Z,41312
2016-08-23T06:40:50.245Z,55264
2016-08-23T06:42:03.427Z,61568
2016-08-23T06:43:16.409Z,63200
2016-08-23T06:44:29.400Z,65824
2016-08-23T06:45:42.388Z,65056
2016-08-23T06:46:55.373Z,65056
2016-08-23T06:48:08.358Z,67680
2016-08-23T06:49:21.343Z,66528
2016-08-23T06:50:34.331Z,67168
2016-08-23T06:51:47.320Z,71936
2016-08-23T06:53:00.310Z,74048
2016-08-23T06:54:13.297Z,75072
2016-08-23T06:55:26.303Z,75008
2016-08-23T06:56:40.404Z,73920
2016-08-23T06:57:54.213Z,76000
2016-08-23T06:59:07.245Z,77184
2016-08-23T07:00:20.459Z,81024
2016-08-23T07:01:39.382Z,80992
2016-08-23T07:02:52.476Z,79744
2016-08-23T07:04:06.119Z,80448
2016-08-23T07:05:19.293Z,78656
2016-08-23T07:06:32.307Z,77216
2016-08-23T07:07:45.558Z,78688
2016-08-23T07:08:58.550Z,79968
2016-08-23T07:10:11.551Z,77952
2016-08-23T07:11:24.546Z,79456
2016-08-23T07:12:37.551Z,78880
2016-08-23T07:13:50.539Z,77472
2016-08-23T07:15:03.752Z,78752
2016-08-23T07:16:19.222Z,76128
2016-08-23T07:17:32.223Z,54976
2016-08-23T07:18:45.231Z,57888
2016-08-23T07:19:58.303Z,51968
2016-08-23T07:21:11.370Z,55744
2016-08-23T07:22:24.563Z,81120
2016-08-23T07:23:37.561Z,72320
2016-08-23T07:24:50.761Z,79040
2016-08-23T07:26:03.794Z,77824
2016-08-23T07:27:16.805Z,80352
2016-08-23T07:28:30.004Z,79552
2016-08-23T07:29:43.007Z,80384
2016-08-23T07:30:56.228Z,82464
2016-08-23T07:32:09.381Z,82432
2016-08-23T07:33:22.415Z,83616
2016-08-23T07:34:35.425Z,82592
2016-08-23T07:35:48.613Z,75968
2016-08-23T07:37:01.610Z,76608
2016-08-23T07:38:14.620Z,80992
2016-08-23T07:39:27.638Z,79968
2016-08-23T07:40:40.646Z,79616
2016-08-23T07:41:53.854Z,80672
2016-08-23T07:43:06.852Z,76672
2016-08-23T07:44:19.850Z,79552
2016-08-23T07:45:33.080Z,76352
2016-08-23T07:46:46.092Z,60960
2016-08-23T07:47:59.101Z,79040
2016-08-23T07:49:12.109Z,77728
2016-08-23T07:50:25.317Z,78848
2016-08-23T07:51:38.315Z,82240
2016-08-23T07:52:51.328Z,81504
2016-08-23T07:54:04.336Z,83968
2016-08-23T07:55:17.381Z,84864
2016-08-23T07:56:30.383Z,85856
2016-08-23T07:57:43.392Z,90720
2016-08-23T07:58:56.399Z,91232
2016-08-23T08:00:09.416Z,88544
2016-08-23T08:01:22.428Z,84160
2016-08-23T08:02:35.428Z,83424
2016-08-23T08:03:48.427Z,88768
2016-08-23T08:05:01.517Z,92448
2016-08-23T08:06:14.725Z,94816
2016-08-23T08:07:27.723Z,87680
2016-08-23T08:08:40.738Z,88608
2016-08-23T08:09:53.739Z,87168
2016-08-23T08:11:06.775Z,88672
2016-08-23T08:12:19.777Z,86816
2016-08-23T08:13:32.782Z,90592
2016-08-23T08:14:45.783Z,94432
2016-08-23T08:15:58.823Z,70688
2016-08-23T08:17:11.836Z,52704
2016-08-23T08:18:24.843Z,33056
2016-08-23T08:19:38.097Z,43392
2016-08-23T08:20:51.108Z,32992
2016-08-23T08:22:04.122Z,37376
2016-08-23T08:23:17.133Z,37696
2016-08-23T08:24:30.156Z,72960
2016-08-23T08:25:43.169Z,63296
2016-08-23T08:26:56.374Z,60608
2016-08-23T08:28:09.374Z,76672
2016-08-23T08:29:22.377Z,81440
2016-08-23T08:30:35.392Z,80192
2016-08-23T08:31:48.395Z,84480
2016-08-23T08:33:01.396Z,80352
2016-08-23T08:34:14.393Z,80288
2016-08-23T08:35:27.406Z,81632
2016-08-23T08:36:40.409Z,83968
2016-08-23T08:37:53.420Z,86944
2016-08-23T08:39:06.430Z,89408
2016-08-23T08:40:19.445Z,89856
2016-08-23T08:41:32.449Z,95392
2016-08-23T08:42:45.455Z,95680
2016-08-23T08:43:58.459Z,92704
2016-08-23T08:45:11.664Z,94784
2016-08-23T08:46:24.869Z,94912
2016-08-23T08:47:38.075Z,90176
2016-08-23T08:48:51.081Z,89312
2016-08-23T08:50:04.092Z,92128
2016-08-23T08:51:17.300Z,92032
2016-08-23T08:52:30.307Z,92736
2016-08-23T08:53:43.324Z,92064
2016-08-23T08:54:56.332Z,95328
2016-08-23T08:56:09.346Z,94912
2016-08-23T08:57:22.345Z,94304
2016-08-23T08:58:35.371Z,89472
2016-08-23T08:59:48.369Z,89440
2016-08-23T09:01:01.382Z,87840
2016-08-23T09:02:14.400Z,90208
2016-08-23T09:03:27.416Z,97632
2016-08-23T09:04:40.428Z,96960
2016-08-23T09:05:53.482Z,87456
2016-08-23T09:07:06.489Z,97024
2016-08-23T09:08:19.499Z,94240
2016-08-23T09:09:32.506Z,97376
2016-08-23T09:10:45.511Z,98016
2016-08-23T09:11:58.521Z,94176
2016-08-23T09:13:11.531Z,89984
2016-08-23T09:14:24.739Z,87776
2016-08-23T09:15:37.744Z,93056
2016-08-23T09:16:50.749Z,101024
2016-08-23T09:18:03.768Z,103328
2016-08-23T09:19:16.782Z,103200
2016-08-23T09:20:30.044Z,104768
2016-08-23T09:21:43.053Z,113760
2016-08-23T09:22:56.071Z,121248
2016-08-23T09:24:09.086Z,112704
2016-08-23T09:25:22.095Z,104768
2016-08-23T09:26:35.294Z,104704
2016-08-23T09:27:48.296Z,100672
2016-08-23T09:29:01.302Z,98432
2016-08-23T09:30:14.321Z,97152
2016-08-23T09:31:27.321Z,97376
2016-08-23T09:32:40.532Z,94144
2016-08-23T09:33:53.544Z,90656
2016-08-23T09:35:06.770Z,79232
2016-08-23T09:36:19.982Z,88128
2016-08-23T09:37:33.016Z,87072
2016-08-23T09:38:46.024Z,88480
2016-08-23T09:39:59.257Z,84096
2016-08-23T09:41:12.266Z,81344
2016-08-23T09:42:25.287Z,83392
2016-08-23T09:43:38.294Z,78144
2016-08-23T09:44:51.295Z,69888
2016-08-23T09:46:04.308Z,68704
2016-08-23T09:47:17.318Z,62592
2016-08-23T09:48:30.323Z,49472
2016-08-23T09:49:43.334Z,45952
2016-08-23T09:50:56.358Z,41216
2016-08-23T09:52:09.565Z,41312
2016-08-23T09:53:22.571Z,40352
2016-08-23T09:54:36.029Z,41280
2016-08-23T09:55:49.343Z,39776
2016-08-23T09:57:02.351Z,36768
2016-08-23T09:58:15.357Z,36544
2016-08-23T09:59:28.565Z,39712
2016-08-23T10:00:41.773Z,51584
2016-08-23T10:01:54.772Z,64544
2016-08-23T10:03:07.778Z,55872
2016-08-23T10:04:20.786Z,53088
2016-08-23T10:05:33.787Z,60288
2016-08-23T10:06:46.803Z,74688
2016-08-23T10:08:00.008Z,74144
2016-08-23T10:09:13.015Z,72416
2016-08-23T10:10:26.026Z,68736
2016-08-23T10:11:39.235Z,68384
2016-08-23T10:12:52.253Z,66912
2016-08-23T10:14:05.264Z,68128
2016-08-23T10:15:18.471Z,64896
2016-08-23T10:16:31.485Z,64192
2016-08-23T10:17:44.500Z,69152
2016-08-23T10:18:57.520Z,67616
2016-08-23T10:20:10.530Z,69760
2016-08-23T10:21:23.586Z,80448
2016-08-23T10:22:36.602Z,87520
2016-08-23T10:23:49.622Z,81792
2016-08-23T10:25:03.275Z,78464
2016-08-23T10:26:17.109Z,83200
2016-08-23T10:27:31.071Z,81312
2016-08-23T10:28:44.284Z,73824
2016-08-23T10:29:57.287Z,73536
2016-08-23T10:31:10.299Z,74944
2016-08-23T10:32:23.305Z,77440
2016-08-23T10:33:36.315Z,76832
2016-08-23T10:34:49.554Z,78240
2016-08-23T10:36:02.558Z,77856
2016-08-23T10:37:15.561Z,70944
2016-08-23T10:38:28.565Z,68800
2016-08-23T10:39:41.567Z,70816
2016-08-23T10:40:54.578Z,71552
2016-08-23T10:42:07.579Z,71296
2016-08-23T10:43:20.578Z,67520
2016-08-23T10:44:33.597Z,68224
2016-08-23T10:45:46.612Z,66624
2016-08-23T10:46:59.623Z,65824
2016-08-23T10:48:12.834Z,59488
2016-08-23T10:49:25.841Z,66336
2016-08-23T10:50:39.048Z,59168
2016-08-23T10:51:52.068Z,58912
2016-08-23T10:53:05.080Z,65120
2016-08-23T10:54:18.320Z,62592
2016-08-23T10:55:31.327Z,66848
2016-08-23T10:56:44.536Z,69312
2016-08-23T10:57:57.545Z,68288
2016-08-23T10:59:10.569Z,61920
2016-08-23T11:00:23.584Z,62592
2016-08-23T11:01:36.594Z,66688
2016-08-23T11:02:49.808Z,67840
2016-08-23T11:04:02.821Z,66272
2016-08-23T11:05:15.842Z,65600
2016-08-23T11:06:28.848Z,62688
2016-08-23T11:07:41.850Z,62496
2016-08-23T11:08:55.062Z,60576
2016-08-23T11:10:08.082Z,63904
2016-08-23T11:11:21.290Z,62624
2016-08-23T11:12:34.305Z,55680
2016-08-23T11:13:47.318Z,45792
2016-08-23T11:15:00.314Z,52096
2016-08-23T11:16:13.531Z,54784
2016-08-23T11:17:26.529Z,57248
2016-08-23T11:18:39.535Z,55168
2016-08-23T11:19:52.533Z,53376
2016-08-23T11:21:05.528Z,48096
2016-08-23T11:22:18.586Z,55360
2016-08-23T11:23:31.592Z,58560
2016-08-23T11:24:44.600Z,55776
2016-08-23T11:25:57.601Z,52288
2016-08-23T11:27:10.597Z,55904
2016-08-23T11:28:23.845Z,50080
2016-08-23T11:29:36.844Z,50272
2016-08-23T11:30:49.843Z,51744
2016-08-23T11:32:03.062Z,46880
2016-08-23T11:33:16.085Z,43136
2016-08-23T11:34:29.092Z,51520
2016-08-23T11:35:42.328Z,54496
2016-08-23T11:36:55.354Z,50240
2016-08-23T11:38:08.352Z,48128
2016-08-23T11:39:21.362Z,49088
2016-08-23T11:40:34.387Z,48096
2016-08-23T11:41:47.397Z,47232
2016-08-23T11:43:00.398Z,45888
2016-08-23T11:44:13.434Z,42496
2016-08-23T11:45:26.436Z,45664
2016-08-23T11:46:39.471Z,38624
2016-08-23T11:47:52.479Z,41568
2016-08-23T11:49:05.486Z,39904
2016-08-23T11:50:18.502Z,39712
2016-08-23T11:51:31.499Z,41248
2016-08-23T11:52:44.505Z,44928
2016-08-23T11:53:57.529Z,38720
2016-08-23T11:55:10.533Z,38272
2016-08-23T11:56:23.541Z,35840
2016-08-23T11:57:36.545Z,33248
2016-08-23T11:58:49.558Z,32480
2016-08-23T12:00:02.592Z,28384
2016-08-23T12:01:15.599Z,31776
2016-08-23T12:02:28.602Z,34080
2016-08-23T12:03:41.805Z,34400
2016-08-23T12:04:54.821Z,34080
2016-08-23T12:06:08.051Z,34144
2016-08-23T12:07:21.065Z,31392
2016-08-23T12:08:34.068Z,30144
2016-08-23T12:09:47.084Z,31168
2016-08-23T12:11:00.086Z,28160
2016-08-23T12:12:13.295Z,27040
2016-08-23T12:13:26.515Z,30624
2016-08-23T12:14:39.726Z,27328
2016-08-23T12:15:52.739Z,26176
2016-08-23T12:17:05.749Z,27264
2016-08-23T12:18:18.752Z,26752
2016-08-23T12:19:31.751Z,27104
2016-08-23T12:20:44.765Z,25984
2016-08-23T12:21:57.971Z,26784
2016-08-23T12:23:11.039Z,26400
2016-08-23T12:24:24.051Z,25472
2016-08-23T12:25:37.054Z,25472
2016-08-23T12:26:50.058Z,23936
2016-08-23T12:28:03.061Z,22016
2016-08-23T12:29:16.067Z,22688
2016-08-23T12:30:29.072Z,22208
2016-08-23T12:31:42.077Z,22176
2016-08-23T12:32:55.234Z,21504
2016-08-23T12:34:08.434Z,21184
2016-08-23T12:35:21.434Z,20800
2016-08-23T12:36:34.632Z,19904
2016-08-23T12:37:47.853Z,19872
2016-08-23T12:39:00.855Z,19168
2016-08-23T12:40:13.862Z,18688
2016-08-23T12:41:26.864Z,18016
2016-08-23T12:42:39.865Z,17920
2016-08-23T12:43:56.248Z,18080
2016-08-23T12:45:11.204Z,16608
2016-08-23T12:46:24.302Z,16256
2016-08-23T12:47:37.306Z,16128
2016-08-23T12:48:50.308Z,15264
2016-08-23T12:50:03.307Z,14976
2016-08-23T12:51:16.303Z,14592
2016-08-23T12:52:29.299Z,13696
2016-08-23T12:53:42.511Z,13440
2016-08-23T12:54:55.509Z,12768
2016-08-23T12:56:08.510Z,13152
2016-08-23T12:57:21.695Z,12896
2016-08-23T12:58:34.693Z,12432
2016-08-23T12:59:47.896Z,11816
2016-08-23T13:01:00.898Z,11372
2016-08-23T13:02:13.902Z,11484
2016-08-23T13:03:26.908Z,10900
2016-08-23T13:04:39.917Z,10572
2016-08-23T13:05:52.917Z,10136
2016-08-23T13:07:05.933Z,9888
2016-08-23T13:08:18.927Z,9536
2016-08-23T13:09:31.926Z,9348
2016-08-23T13:10:44.924Z,9284
2016-08-23T13:11:57.932Z,8288
2016-08-23T13:13:11.157Z,7376
2016-08-23T13:14:24.366Z,7088
2016-08-23T13:15:37.378Z,6956
2016-08-23T13:16:50.378Z,6860
2016-08-23T13:18:03.378Z,6472
2016-08-23T13:19:16.379Z,6064
2016-08-23T13:20:29.385Z,5872
2016-08-23T13:21:42.776Z,5900
2016-08-23T13:22:55.786Z,6204
2016-08-23T13:24:08.833Z,6404
2016-08-23T13:25:21.840Z,6408
2016-08-23T13:26:34.841Z,6240
2016-08-23T13:27:47.838Z,6124
2016-08-23T13:29:00.833Z,6384
2016-08-23T13:30:13.837Z,6496
2016-08-23T13:31:26.834Z,6488
2016-08-23T13:32:39.839Z,6400
2016-08-23T13:33:52.832Z,6276
2016-08-23T13:35:05.824Z,6200
2016-08-23T13:36:18.824Z,6232
2016-08-23T13:37:31.828Z,6296
2016-08-23T13:38:44.832Z,6312
2016-08-23T13:39:57.826Z,6340
2016-08-23T13:41:11.025Z,6320
2016-08-23T13:42:24.020Z,6368
2016-08-23T13:43:37.021Z,6368
2016-08-23T13:44:50.034Z,6312
2016-08-23T13:46:03.039Z,6288
2016-08-23T13:47:16.049Z,6256
2016-08-23T13:48:29.283Z,6256
2016-08-23T13:49:42.294Z,6372
2016-08-23T13:50:55.301Z,6480
2016-08-23T13:52:08.704Z,6456
2016-08-23T13:53:21.717Z,6404
2016-08-23T13:54:34.716Z,6304
2016-08-23T13:55:47.737Z,6248
2016-08-23T13:57:00.931Z,6160
2016-08-23T13:58:13.931Z,6144
2016-08-23T13:59:26.929Z,6144
2016-08-23T14:00:39.923Z,6136
2016-08-23T14:01:52.930Z,6168
2016-08-23T14:03:05.936Z,6096
2016-08-23T14:04:18.932Z,5960
2016-08-23T14:05:31.923Z,5888
2016-08-23T14:06:44.921Z,6096
2016-08-23T14:07:57.926Z,6240
2016-08-23T14:09:10.932Z,6208
2016-08-23T14:10:23.921Z,6140
2016-08-23T14:11:36.915Z,6180
2016-08-23T14:12:49.923Z,6008
2016-08-23T14:14:02.920Z,5580
2016-08-23T14:15:15.911Z,5404
2016-08-23T14:16:29.115Z,5340
2016-08-23T14:17:42.112Z,5292
2016-08-23T14:18:55.107Z,5204
2016-08-23T14:20:08.113Z,5176
2016-08-23T14:21:21.122Z,5136
2016-08-23T14:22:34.129Z,5060
2016-08-23T14:23:47.325Z,5012
2016-08-23T14:25:00.370Z,4944
2016-08-23T14:26:13.367Z,4924
2016-08-23T14:27:26.359Z,4872
2016-08-23T14:28:39.350Z,4692
2016-08-23T14:29:52.344Z,4660
2016-08-23T14:31:05.342Z,4632
2016-08-23T14:32:18.353Z,4548
2016-08-23T14:33:31.341Z,4552
2016-08-23T14:34:44.351Z,4436
2016-08-23T14:35:57.349Z,4408
2016-08-23T14:37:10.347Z,4360
2016-08-23T14:38:23.356Z,4320
2016-08-23T14:39:36.360Z,4200
2016-08-23T14:40:49.363Z,4112
2016-08-23T14:42:02.355Z,4048
2016-08-23T14:43:15.371Z,3960
2016-08-23T14:44:28.373Z,3900
2016-08-23T14:45:41.371Z,3872
2016-08-23T14:46:54.365Z,3856
2016-08-23T14:48:07.393Z,3824
2016-08-23T14:49:20.385Z,3796
2016-08-23T14:50:33.391Z,3768
2016-08-23T14:51:46.393Z,3740
2016-08-23T14:52:59.384Z,3724
2016-08-23T14:54:12.589Z,3688
2016-08-23T14:55:25.598Z,3684
2016-08-23T14:56:38.588Z,3624
2016-08-23T14:57:51.586Z,3596
2016-08-23T14:59:04.579Z,3572
2016-08-23T15:00:17.579Z,3528
2016-08-23T15:01:30.569Z,3488
2016-08-23T15:02:43.775Z,3460
2016-08-23T15:03:56.786Z,3432
2016-08-23T15:05:09.785Z,3412
2016-08-23T15:06:22.782Z,3396
2016-08-23T15:07:35.791Z,3364
2016-08-23T15:08:48.784Z,3352
2016-08-23T15:10:01.775Z,3320
2016-08-23T15:11:14.773Z,3300
2016-08-23T15:12:27.975Z,3284
2016-08-23T15:13:40.974Z,3268
2016-08-23T15:14:54.167Z,3244
2016-08-23T15:16:07.165Z,3224
2016-08-23T15:17:20.364Z,3212
2016-08-23T15:18:33.369Z,3200
2016-08-23T15:19:46.371Z,3176
2016-08-23T15:20:59.374Z,3160
2016-08-23T15:22:12.365Z,3144
2016-08-23T15:23:25.357Z,3156
2016-08-23T15:24:38.792Z,3128
2016-08-23T15:25:51.847Z,3128
2016-08-23T15:27:05.052Z,3128
2016-08-23T15:28:18.056Z,3120
2016-08-23T15:29:31.047Z,3096
2016-08-23T15:30:44.045Z,3080
2016-08-23T15:31:57.041Z,3064
2016-08-23T15:33:10.034Z,3064
2016-08-23T15:34:23.227Z,3052
2016-08-23T15:35:36.418Z,3040
2016-08-23T15:36:49.424Z,3032
2016-08-23T15:38:02.420Z,3024
2016-08-23T15:39:15.428Z,3008
2016-08-23T15:40:28.425Z,2992
2016-08-23T15:41:41.627Z,2984
2016-08-23T15:42:54.623Z,2972
2016-08-23T15:44:07.625Z,2968
2016-08-23T15:45:20.825Z,2964
2016-08-23T15:46:34.024Z,2960
2016-08-23T15:47:47.018Z,2964
2016-08-23T15:49:00.217Z,2968
2016-08-23T15:50:13.261Z,2968
2016-08-23T15:51:26.253Z,2960
2016-08-23T15:52:39.244Z,2960
2016-08-23T15:53:52.242Z,2960
2016-08-23T15:55:05.447Z,2956
2016-08-23T15:56:18.437Z,2956
2016-08-23T15:57:31.448Z,2956
2016-08-23T15:58:44.447Z,2956
2016-08-23T15:59:57.459Z,2952
2016-08-23T16:01:10.453Z,2948
2016-08-23T16:02:23.441Z,2948
2016-08-23T16:03:36.435Z,2940
2016-08-23T16:04:49.435Z,2928
2016-08-23T16:06:02.450Z,2920
2016-08-23T16:07:15.446Z,2916
2016-08-23T16:08:28.437Z,2904
2016-08-23T16:09:41.427Z,2900
2016-08-23T16:10:54.422Z,2900
2016-08-23T16:12:07.411Z,2892
2016-08-23T16:13:20.405Z,2888
2016-08-23T16:14:33.408Z,2876
2016-08-23T16:15:46.650Z,2872
2016-08-23T16:16:59.643Z,2868
2016-08-23T16:18:12.632Z,2868
2016-08-23T16:19:25.642Z,2868
2016-08-23T16:20:39.035Z,2872
2016-08-23T16:21:52.030Z,2868
2016-08-23T16:23:05.024Z,2856
2016-08-23T16:24:18.217Z,2836
2016-08-23T16:25:31.215Z,2832